Aplington, Iowa
Current Conditions -  °F | °C
As of 5:15 AM on Wednesday 26 Nov 2014 (Local Time) from KIFA Reporting Station
Overcast Overcast  
Wind Chill: -9°   Ceiling: 1200
Heat Index: -3°   Visibility: 10mi
Dew Point: -5°   Wind: 13mph
Humidity: 88%   Direction: 100°E
Pressure: 29.93"   Gusts: NA
Location:  42.58°N, 92.88°W
Report Text: KIFA 261115Z AUTO 10011KT 10SM OVC012 M03/M05 A2993 RMK AO2 T10331050
Loading
Personal Weather Stations






























Interactive Weather Map New forecast layout! Learn more

10-Day Weather Forecast

Advertisements
Track Severe Weather on mobile